Sioux Arrow — WAG6168 — position and weather

sailwx.info

Track history (hours):
 
Tides and Currents Weather Stations Pressure Air Temp Water Temp Dewpoint Dewpoint Depression Visibility Wind Speed Wind Dir Waves Ship Positions

Sioux Arrow

Owner: HARMON, JACK L, PORT ANGELES, WA. More information available from US FCC via Universal Licensing System and Coast Guard Vessel Documentation Center.

Last reported at 2015-Sep-01 14:24 UTC. Time now 2015-Sep-01 20:24 UTC.
Position N 48°34' W 122°35'.

Type: Port tender. MMSI: 366973370.

Date/timePositionNaut miles runAvg speedWind from/ knotsBaromVisibWave heightAir tempDewpointWater temp
2015-Sep-01 14:24N 48°34' W 122°35'  
2015-Aug-26 15:32N 48°29' W 122°32'3 3.4
2015-Aug-26 14:33N 48°31' W 122°37'0 0.0
2015-Aug-26 04:27N 48°31' W 122°36'0 0.0
2015-Aug-26 03:33N 48°31' W 122°36'0 0.0
2015-Aug-26 02:33N 48°31' W 122°36'2 1.6
2015-Aug-26 01:33N 48°31' W 122°34'2 1.6
2015-Aug-26 00:33N 48°31' W 122°36'0 0.0
2015-Aug-25 23:33N 48°31' W 122°36'0 0.0
2015-Aug-25 22:33N 48°31' W 122°36'0 0.0
2015-Aug-25 21:33N 48°31' W 122°36'0 0.0
2015-Aug-25 20:33N 48°31' W 122°36'0 0.5
2015-Aug-25 19:33N 48°31' W 122°36'0 0.5
2015-Aug-25 18:33N 48°31' W 122°36'0 0.0
2015-Aug-25 17:33N 48°31' W 122°36'0 0.0
2015-Aug-25 16:33N 48°31' W 122°36'1 1.5
2015-Aug-25 15:33N 48°31' W 122°34'1 1.3
2015-Aug-25 14:33N 48°31' W 122°36'0 0.0
2015-Aug-25 06:08N 48°31' W 122°36'5 9.0
2015-Aug-25 05:33N 48°35' W 122°33'5 5.3
2015-Aug-25 04:33N 48°31' W 122°36'4 4.1
2015-Aug-25 03:34N 48°34' W 122°34'4 4.0
2015-Aug-25 02:33N 48°31' W 122°36'2 2.4
2015-Aug-25 01:33N 48°33' W 122°34'2 2.5
2015-Aug-25 00:33N 48°31' W 122°36'1 0.9
2015-Aug-24 23:34N 48°31' W 122°35'6 6.0
2015-Aug-24 22:33N 48°37' W 122°34'1 1.3
2015-Aug-24 21:33N 48°36' W 122°34'5 5.4
2015-Aug-24 20:33N 48°31' W 122°36'0 0.0
2015-Aug-24 19:33N 48°31' W 122°36'0 0.0
2015-Aug-24 18:33N 48°31' W 122°36'0 0.0
2015-Aug-24 17:33N 48°31' W 122°36'0 0.0
2015-Aug-24 16:09N 48°31' W 122°36'2 3.1
2015-Aug-24 15:33N 48°31' W 122°34'2 1.9
2015-Aug-24 14:33N 48°31' W 122°36'0 0.0
2015-Aug-24 13:33N 48°31' W 122°36'6 5.6
2015-Aug-24 12:33N 48°36' W 122°34'6 0.4
2015-Aug-23 23:23N 48°31' W 122°36'1012.2
2015-Aug-23 22:33N 48°40' W 122°32'2 1.9
2015-Aug-23 21:33N 48°39' W 122°33'8 8.3
2015-Aug-23 20:33N 48°31' W 122°36'0 0.0
2015-Aug-23 15:33N 48°31' W 122°36'0 0.2
2015-Aug-23 14:33N 48°31' W 122°36'0 0.1
2015-Aug-23 11:18N 48°31' W 122°36'0 0.1
2015-Aug-23 10:33N 48°31' W 122°37'0 0.0
2015-Aug-23 06:33N 48°31' W 122°36'1211.6
2015-Aug-23 05:33N 48°42' W 122°39'6 5.9
2015-Aug-23 04:29N 48°48' W 122°44'0 0.0
2015-Aug-23 03:24N 48°48' W 122°44'0 0.0
2015-Aug-23 02:31N 48°48' W 122°44'10 9.9
2015-Aug-23 01:33N 48°39' W 122°36'9 8.9
2015-Aug-23 00:33N 48°31' W 122°36'0 0.0
2015-Aug-22 21:11N 48°31' W 122°36'0 0.0
2015-Aug-22 18:32N 48°31' W 122°36'1 1.4
2015-Aug-22 17:33N 48°31' W 122°35'1 1.3
2015-Aug-22 16:33N 48°31' W 122°36'0 0.4
2015-Aug-22 15:33N 48°31' W 122°36'0 0.4
2015-Aug-22 14:33N 48°31' W 122°36'  
Track history (hours):
 
Tides and Currents Weather Stations Pressure Air Temp Water Temp Dewpoint Dewpoint Depression Visibility Wind Speed Wind Dir Waves Ship Positions

Sioux Arrow

Owner: HARMON, JACK L, PORT ANGELES, WA. More information available from US FCC via Universal Licensing System and Coast Guard Vessel Documentation Center.

Last reported at 2015-Sep-01 14:24 UTC. Time now 2015-Sep-01 20:24 UTC.
Position N 48°34' W 122°35'.

Type: Port tender. MMSI: 366973370.

Date/timePositionNaut miles runAvg speedWind from/ knotsBaromVisibWave heightAir tempDewpointWater temp
2015-Sep-01 14:24N 48°34' W 122°35'  
2015-Aug-26 15:32N 48°29' W 122°32'3 3.4
2015-Aug-26 14:33N 48°31' W 122°37'0 0.0
2015-Aug-26 04:27N 48°31' W 122°36'0 0.0
2015-Aug-26 03:33N 48°31' W 122°36'0 0.0
2015-Aug-26 02:33N 48°31' W 122°36'2 1.6
2015-Aug-26 01:33N 48°31' W 122°34'2 1.6
2015-Aug-26 00:33N 48°31' W 122°36'0 0.0
2015-Aug-25 23:33N 48°31' W 122°36'0 0.0
2015-Aug-25 22:33N 48°31' W 122°36'0 0.0
2015-Aug-25 21:33N 48°31' W 122°36'0 0.0
2015-Aug-25 20:33N 48°31' W 122°36'0 0.5
2015-Aug-25 19:33N 48°31' W 122°36'0 0.5
2015-Aug-25 18:33N 48°31' W 122°36'0 0.0
2015-Aug-25 17:33N 48°31' W 122°36'0 0.0
2015-Aug-25 16:33N 48°31' W 122°36'1 1.5
2015-Aug-25 15:33N 48°31' W 122°34'1 1.3
2015-Aug-25 14:33N 48°31' W 122°36'0 0.0
2015-Aug-25 06:08N 48°31' W 122°36'5 9.0
2015-Aug-25 05:33N 48°35' W 122°33'5 5.3
2015-Aug-25 04:33N 48°31' W 122°36'4 4.1
2015-Aug-25 03:34N 48°34' W 122°34'4 4.0
2015-Aug-25 02:33N 48°31' W 122°36'2 2.4
2015-Aug-25 01:33N 48°33' W 122°34'2 2.5
2015-Aug-25 00:33N 48°31' W 122°36'1 0.9
2015-Aug-24 23:34N 48°31' W 122°35'6 6.0
2015-Aug-24 22:33N 48°37' W 122°34'1 1.3
2015-Aug-24 21:33N 48°36' W 122°34'5 5.4
2015-Aug-24 20:33N 48°31' W 122°36'0 0.0
2015-Aug-24 19:33N 48°31' W 122°36'0 0.0
2015-Aug-24 18:33N 48°31' W 122°36'0 0.0
2015-Aug-24 17:33N 48°31' W 122°36'0 0.0
2015-Aug-24 16:09N 48°31' W 122°36'2 3.1
2015-Aug-24 15:33N 48°31' W 122°34'2 1.9
2015-Aug-24 14:33N 48°31' W 122°36'0 0.0
2015-Aug-24 13:33N 48°31' W 122°36'6 5.6
2015-Aug-24 12:33N 48°36' W 122°34'6 0.4
2015-Aug-23 23:23N 48°31' W 122°36'1012.2
2015-Aug-23 22:33N 48°40' W 122°32'2 1.9
2015-Aug-23 21:33N 48°39' W 122°33'8 8.3
2015-Aug-23 20:33N 48°31' W 122°36'0 0.0
2015-Aug-23 15:33N 48°31' W 122°36'0 0.2
2015-Aug-23 14:33N 48°31' W 122°36'0 0.1
2015-Aug-23 11:18N 48°31' W 122°36'0 0.1
2015-Aug-23 10:33N 48°31' W 122°37'0 0.0
2015-Aug-23 06:33N 48°31' W 122°36'1211.6
2015-Aug-23 05:33N 48°42' W 122°39'6 5.9
2015-Aug-23 04:29N 48°48' W 122°44'0 0.0
2015-Aug-23 03:24N 48°48' W 122°44'0 0.0
2015-Aug-23 02:31N 48°48' W 122°44'10 9.9
2015-Aug-23 01:33N 48°39' W 122°36'9 8.9
2015-Aug-23 00:33N 48°31' W 122°36'0 0.0
2015-Aug-22 21:11N 48°31' W 122°36'0 0.0
2015-Aug-22 18:32N 48°31' W 122°36'1 1.4
2015-Aug-22 17:33N 48°31' W 122°35'1 1.3
2015-Aug-22 16:33N 48°31' W 122°36'0 0.4
2015-Aug-22 15:33N 48°31' W 122°36'0 0.4
2015-Aug-22 14:33N 48°31' W 122°36'  

Dump ship's entire track history